Time;durP1;ratioP1;P1;durP2;ratioP2;P2;SDS_P1;SDS_P2;PMS_P1;PMS_P2;Temp;Humidity;BMP_temperature;BMP_pressure;BME280_temperature;BME280_humidity;BME280_pressure;Samples;Min_cycle;Max_cycle;Signal;HPM_P1;HPM_P2
2023/12/09 00:00:57;;;;;;;;;;;;;;;21.75;21.30;97955.50;5077260;28;952;-74
2023/12/09 00:03:23;;;;;;;;;;;;;;;21.76;21.27;97948.63;5076704;28;954;-74
2023/12/09 00:05:48;;;;;;;;;;;;;;;21.78;21.37;97946.13;5075846;28;1894;-74
2023/12/09 00:08:14;;;;;;;;;;;;;;;21.65;21.37;97950.13;5074081;28;973;-74
2023/12/09 00:10:39;;;;;;;;;;;;;;;21.72;21.52;97958.44;5040984;28;1233;-75
2023/12/09 00:13:05;;;;;;;;;;;;;;;21.79;21.06;97955.41;5074589;28;1019;-74
2023/12/09 00:15:31;;;;;;;;;;;;;;;21.53;21.31;97957.34;5037660;28;1126;-74
2023/12/09 00:17:56;;;;;;;;;;;;;;;21.42;21.92;97957.63;5054041;28;989;-74
2023/12/09 00:20:23;;;;;;;;;;;;;;;21.63;21.34;97961.91;5037712;28;951;-75
2023/12/09 00:22:48;;;;;;;;;;;;;;;21.76;21.01;97970.44;5037539;28;1205;-74
2023/12/09 00:25:14;;;;;;;;;;;;;;;21.59;21.29;97967.66;5054270;28;1080;-74
2023/12/09 00:27:39;;;;;;;;;;;;;;;21.81;21.13;97976.41;5054086;28;1910;-74
2023/12/09 00:30:06;;;;;;;;;;;;;;;21.87;21.11;97970.97;5037134;28;1226;-74
2023/12/09 00:32:32;;;;;;;;;;;;;;;21.58;21.54;97970.94;5053687;28;1057;-74
2023/12/09 00:34:57;;;;;;;;;;;;;;;21.51;21.69;97971.16;5054032;28;1066;-75
2023/12/09 00:37:23;;;;;;;;;;;;;;;21.87;20.94;97965.31;5054079;28;1082;-74
2023/12/09 00:39:48;;;;;;;;;;;;;;;21.64;21.43;97966.34;5053548;28;1013;-75
2023/12/09 00:42:14;;;;;;;;;;;;;;;21.79;21.16;97959.03;5053622;28;1090;-75
2023/12/09 00:44:39;;;;;;;;;;;;;;;21.85;21.31;97956.44;5053723;28;1203;-74
2023/12/09 00:47:05;;;;;;;;;;;;;;;21.89;21.05;97962.03;5067200;28;1992;-74
2023/12/09 00:49:31;;;;;;;;;;;;;;;21.84;21.08;97966.19;5076843;28;1032;-74
2023/12/09 00:51:56;;;;;;;;;;;;;;;21.78;21.31;97953.81;5077185;28;981;-74
2023/12/09 00:54:22;;;;;;;;;;;;;;;21.83;20.93;97953.28;5060275;28;1218;-74
2023/12/09 00:56:47;;;;;;;;;;;;;;;21.77;21.04;97955.88;5077032;28;943;-74
2023/12/09 00:59:13;;;;;;;;;;;;;;;21.85;20.99;97960.06;5060169;28;1080;-74
2023/12/09 01:01:38;;;;;;;;;;;;;;;21.62;21.20;97970.88;5036885;28;1080;-74
2023/12/09 01:04:05;;;;;;;;;;;;;;;21.79;21.20;97973.19;5037077;28;1113;-75
2023/12/09 01:06:31;;;;;;;;;;;;;;;21.69;21.37;97971.44;5020476;28;1980;-74
2023/12/09 01:08:56;;;;;;;;;;;;;;;21.85;21.01;97957.25;5037167;28;991;-75
2023/12/09 01:11:23;;;;;;;;;;;;;;;21.79;21.21;97944.88;5037098;28;1004;-74
2023/12/09 01:13:48;;;;;;;;;;;;;;;21.44;21.33;97943.03;5036875;28;1062;-74
2023/12/09 01:16:14;;;;;;;;;;;;;;;21.86;20.84;97932.53;5037440;28;971;-74
2023/12/09 01:18:40;;;;;;;;;;;;;;;21.57;21.20;97946.72;5036778;28;997;-74
2023/12/09 01:21:05;;;;;;;;;;;;;;;21.45;21.55;97944.59;5053597;28;993;-75
2023/12/09 01:23:31;;;;;;;;;;;;;;;21.49;21.23;97936.81;5052902;28;1072;-74
2023/12/09 01:25:56;;;;;;;;;;;;;;;21.86;21.19;97935.38;5013696;28;1918;-75
2023/12/09 01:28:22;;;;;;;;;;;;;;;21.66;21.21;97932.72;4997456;28;1160;-74
2023/12/09 01:30:48;;;;;;;;;;;;;;;21.81;21.07;97933.91;4993903;28;956;-75
2023/12/09 01:33:13;;;;;;;;;;;;;;;21.81;21.03;97933.91;4994154;28;915;-74
2023/12/09 01:35:39;;;;;;;;;;;;;;;21.94;20.66;97941.63;4994590;28;1172;-74
2023/12/09 01:38:04;;;;;;;;;;;;;;;21.72;21.29;97935.78;5020705;28;1237;-74
2023/12/09 01:40:30;;;;;;;;;;;;;;;21.81;21.20;97938.75;5053308;28;1312;-74
2023/12/09 01:42:56;;;;;;;;;;;;;;;21.58;21.38;97946.25;5036551;28;1166;-74
2023/12/09 01:45:21;;;;;;;;;;;;;;;21.87;20.94;97941.84;5013440;28;1160;-74
2023/12/09 01:47:47;;;;;;;;;;;;;;;21.65;21.36;97953.75;5013349;28;1981;-74
2023/12/09 01:50:14;;;;;;;;;;;;;;;21.78;21.00;97940.47;4997111;28;992;-74
2023/12/09 01:52:40;;;;;;;;;;;;;;;21.71;21.30;97932.16;4999905;28;1533;-74
2023/12/09 01:55:06;;;;;;;;;;;;;;;21.74;20.90;97936.94;5017126;28;957;-75
2023/12/09 01:57:31;;;;;;;;;;;;;;;21.72;21.19;97941.47;5015081;28;1715;-75
2023/12/09 01:59:57;;;;;;;;;;;;;;;21.61;21.13;97932.47;4977852;28;977;-74
2023/12/09 02:02:30;;;;;;;;;;;;;;;22.08;20.62;97935.56;4965117;28;954;-74
2023/12/09 02:05:17;;;;;;;;;;;;;;;21.62;21.26;97932.03;4977698;28;949;-74
2023/12/09 02:07:44;;;;;;;;;;;;;;;21.47;21.28;97927.97;4942588;29;1911;-74
2023/12/09 02:10:10;;;;;;;;;;;;;;;21.51;21.46;97926.66;4958225;28;1315;-74
2023/12/09 02:12:38;;;;;;;;;;;;;;;21.67;21.04;97917.31;4974580;28;889;-74
2023/12/09 02:15:09;;;;;;;;;;;;;;;21.76;21.28;97910.97;4946397;29;990;-75
2023/12/09 02:17:42;;;;;;;;;;;;;;;21.41;21.32;97895.81;4974662;28;1118;-74
2023/12/09 02:20:10;;;;;;;;;;;;;;;21.87;20.79;97907.88;4974290;28;1237;-75
2023/12/09 02:22:36;;;;;;;;;;;;;;;21.83;21.04;97903.09;4973826;28;1065;-75
2023/12/09 02:25:01;;;;;;;;;;;;;;;21.84;20.76;97904.66;4974351;28;1097;-74
2023/12/09 02:27:37;;;;;;;;;;;;;;;21.61;21.19;97901.31;4958417;29;1910;-74
2023/12/09 02:30:20;;;;;;;;;;;;;;;21.62;21.05;97909.38;4990160;28;964;-74
2023/12/09 02:32:46;;;;;;;;;;;;;;;21.71;20.96;97909.50;4958026;29;990;-74
2023/12/09 02:35:12;;;;;;;;;;;;;;;21.83;21.06;97905.91;4958056;29;1216;-74
2023/12/09 02:37:37;;;;;;;;;;;;;;;21.64;21.20;97906.88;4975356;28;1086;-74
2023/12/09 02:40:04;;;;;;;;;;;;;;;21.75;21.15;97896.03;4996539;28;1006;-74
2023/12/09 02:42:31;;;;;;;;;;;;;;;21.70;20.98;97896.56;4996674;28;1011;-75
2023/12/09 02:44:57;;;;;;;;;;;;;;;21.79;20.69;97899.56;4996809;28;1486;-74
2023/12/09 02:47:22;;;;;;;;;;;;;;;21.67;21.19;97900.31;4996372;28;1980;-74
2023/12/09 02:49:48;;;;;;;;;;;;;;;21.65;20.86;97911.28;4996281;28;1111;-75
2023/12/09 02:52:13;;;;;;;;;;;;;;;21.74;20.72;97917.09;5012641;28;980;-75
2023/12/09 02:54:39;;;;;;;;;;;;;;;21.78;20.80;97923.47;4996721;28;1081;-74
2023/12/09 02:57:04;;;;;;;;;;;;;;;21.59;21.29;97915.91;4980198;28;1221;-74
2023/12/09 02:59:30;;;;;;;;;;;;;;;21.56;21.02;97914.78;5012974;28;1003;-74
2023/12/09 03:01:56;;;;;;;;;;;;;;;21.63;21.13;97901.66;4996287;28;1084;-74
2023/12/09 03:04:22;;;;;;;;;;;;;;;21.66;20.89;97907.22;4979082;28;1240;-75
2023/12/09 03:06:48;;;;;;;;;;;;;;;21.74;21.01;97919.94;4996184;28;1898;-74
2023/12/09 03:09:13;;;;;;;;;;;;;;;21.72;21.05;97913.94;5030076;28;1082;-75
2023/12/09 03:11:39;;;;;;;;;;;;;;;21.61;20.84;97907.78;5052293;28;941;-74
2023/12/09 03:14:04;;;;;;;;;;;;;;;21.76;21.04;97908.16;5035411;28;1074;-75
2023/12/09 03:16:30;;;;;;;;;;;;;;;21.89;20.67;97911.81;5051992;28;926;-74
2023/12/09 03:18:55;;;;;;;;;;;;;;;21.55;20.93;97915.22;5035451;28;1027;-75
2023/12/09 03:21:21;;;;;;;;;;;;;;;21.83;20.85;97914.41;5067751;28;1221;-74
2023/12/09 03:23:46;;;;;;;;;;;;;;;22.11;20.54;97923.34;5023490;28;1279;-74
2023/12/09 03:26:15;;;;;;;;;;;;;;;21.96;20.76;97933.47;5057785;28;1946;-74
2023/12/09 03:28:41;;;;;;;;;;;;;;;22.07;20.61;97931.94;5041783;28;1322;-74
2023/12/09 03:31:08;;;;;;;;;;;;;;;21.76;20.77;97919.47;5058291;28;919;-74
2023/12/09 03:33:34;;;;;;;;;;;;;;;21.41;21.48;97924.13;5058459;28;957;-74
2023/12/09 03:35:59;;;;;;;;;;;;;;;20.90;21.96;97920.97;5075137;28;1178;-75
2023/12/09 03:38:25;;;;;;;;;;;;;;;21.20;21.63;97929.06;5041365;28;965;-74
2023/12/09 03:40:50;;;;;;;;;;;;;;;21.41;21.70;97938.25;5041536;28;1161;-74
2023/12/09 03:43:16;;;;;;;;;;;;;;;21.67;21.18;97920.16;5041908;28;958;-74
2023/12/09 03:45:42;;;;;;;;;;;;;;;21.33;21.49;97932.78;5058055;28;1901;-74
2023/12/09 03:48:07;;;;;;;;;;;;;;;21.59;21.38;97921.56;5041820;28;1304;-74
2023/12/09 03:50:33;;;;;;;;;;;;;;;21.44;21.45;97926.03;5058672;28;972;-74
2023/12/09 03:52:58;;;;;;;;;;;;;;;21.58;21.38;97926.44;5058011;28;1071;-74
2023/12/09 03:55:24;;;;;;;;;;;;;;;21.40;21.71;97925.31;5058059;28;958;-74
2023/12/09 03:57:49;;;;;;;;;;;;;;;21.58;21.43;97922.81;5058049;28;971;-74
2023/12/09 04:00:15;;;;;;;;;;;;;;;21.69;21.22;97914.81;5046303;28;1222;-75
2023/12/09 04:02:41;;;;;;;;;;;;;;;21.83;20.86;97914.41;5091568;28;1078;-74
2023/12/09 04:05:06;;;;;;;;;;;;;;;21.64;21.21;97912.53;5077369;28;1362;-75
2023/12/09 04:07:32;;;;;;;;;;;;;;;21.78;20.99;97917.78;5077196;28;1909;-75
2023/12/09 04:09:58;;;;;;;;;;;;;;;21.62;21.18;97902.91;5077302;28;1318;-74
2023/12/09 04:12:24;;;;;;;;;;;;;;;21.26;21.43;97910.31;5077210;28;1335;-74
2023/12/09 04:14:49;;;;;;;;;;;;;;;21.27;21.38;97911.09;5093653;28;1255;-76
2023/12/09 04:17:15;;;;;;;;;;;;;;;21.80;20.76;97903.97;5093986;28;1343;-75
2023/12/09 04:19:41;;;;;;;;;;;;;;;21.47;21.09;97894.03;5077795;28;1331;-76
2023/12/09 04:22:06;;;;;;;;;;;;;;;21.50;21.30;97901.59;5075729;28;1263;-75
2023/12/09 04:24:32;;;;;;;;;;;;;;;21.69;21.11;97906.31;5057284;28;1249;-75
2023/12/09 04:26:57;;;;;;;;;;;;;;;21.76;20.78;97906.13;5057037;28;1910;-75
2023/12/09 04:29:23;;;;;;;;;;;;;;;21.55;21.25;97912.38;5074327;28;999;-75
2023/12/09 04:31:49;;;;;;;;;;;;;;;21.69;20.97;97920.47;5057401;28;1140;-75
2023/12/09 04:34:14;;;;;;;;;;;;;;;21.49;21.38;97929.13;5057951;28;1038;-75
2023/12/09 04:36:40;;;;;;;;;;;;;;;21.60;20.98;97934.47;5057284;28;1133;-76
2023/12/09 04:39:07;;;;;;;;;;;;;;;21.73;20.89;97943.84;5057383;28;1013;-75
2023/12/09 04:41:32;;;;;;;;;;;;;;;21.82;20.76;97958.16;5073817;28;1175;-76
2023/12/09 04:43:58;;;;;;;;;;;;;;;21.72;21.19;97964.13;5058122;28;908;-75
2023/12/09 04:46:23;;;;;;;;;;;;;;;21.77;20.88;97970.03;5076177;28;1965;-76
2023/12/09 04:48:49;;;;;;;;;;;;;;;21.78;20.76;97985.78;5108982;28;703;-75
2023/12/09 04:51:15;;;;;;;;;;;;;;;21.55;20.96;97977.50;5074680;28;810;-75
2023/12/09 04:53:41;;;;;;;;;;;;;;;21.60;20.95;97991.09;5096994;28;1241;-75
2023/12/09 04:56:07;;;;;;;;;;;;;;;21.81;20.92;98004.72;5114249;28;921;-75
2023/12/09 04:58:33;;;;;;;;;;;;;;;21.70;21.11;98018.34;5073500;28;846;-75
2023/12/09 05:00:58;;;;;;;;;;;;;;;21.88;20.88;98011.44;5040431;28;1195;-76
2023/12/09 05:03:24;;;;;;;;;;;;;;;21.87;21.00;98007.00;5040335;28;891;-76
2023/12/09 05:05:49;;;;;;;;;;;;;;;21.58;20.98;98004.94;5056703;28;1926;-76
2023/12/09 05:08:15;;;;;;;;;;;;;;;21.67;21.12;98005.09;5040367;28;1075;-76
2023/12/09 05:10:41;;;;;;;;;;;;;;;21.64;21.08;98008.81;5056833;28;892;-75
2023/12/09 05:13:06;;;;;;;;;;;;;;;21.70;21.13;98007.03;5040387;28;1127;-75
2023/12/09 05:15:52;;;;;;;;;;;;;;;21.57;21.30;98031.66;5013443;28;921;-75
2023/12/09 05:18:17;;;;;;;;;;;;;;;21.79;20.99;98035.50;5013456;28;894;-76
2023/12/09 05:20:44;;;;;;;;;;;;;;;21.69;21.05;98033.75;4974358;28;1015;-75
2023/12/09 05:23:09;;;;;;;;;;;;;;;21.77;20.86;98035.16;4958480;28;1086;-75
2023/12/09 05:25:35;;;;;;;;;;;;;;;21.46;21.13;98031.16;4959559;28;1906;-75
2023/12/09 05:28:00;;;;;;;;;;;;;;;21.60;21.13;98019.41;4958896;29;814;-75
2023/12/09 05:30:26;;;;;;;;;;;;;;;21.41;21.13;98006.19;4959265;29;791;-75
2023/12/09 05:32:52;;;;;;;;;;;;;;;21.81;20.96;98018.06;4975143;28;993;-75
2023/12/09 05:35:17;;;;;;;;;;;;;;;21.61;21.02;98021.03;4967390;28;1273;-76
2023/12/09 05:37:43;;;;;;;;;;;;;;;21.52;21.31;98027.31;4998225;28;789;-75
2023/12/09 05:40:09;;;;;;;;;;;;;;;21.76;21.02;98027.09;5014178;28;901;-75
2023/12/09 05:42:34;;;;;;;;;;;;;;;21.66;20.99;98028.19;5013885;28;918;-75
2023/12/09 05:45:00;;;;;;;;;;;;;;;21.82;20.83;98034.63;4981751;28;1145;-75
2023/12/09 05:47:26;;;;;;;;;;;;;;;21.88;20.85;98034.09;4997641;28;1906;-75
2023/12/09 05:49:51;;;;;;;;;;;;;;;21.54;21.43;98026.88;4997469;28;904;-75
2023/12/09 05:52:17;;;;;;;;;;;;;;;21.47;21.21;98021.41;5054809;28;786;-76
2023/12/09 05:54:42;;;;;;;;;;;;;;;21.62;21.15;98016.97;5112082;28;743;-75
2023/12/09 05:57:08;;;;;;;;;;;;;;;21.58;20.94;98022.72;5111842;28;801;-75
2023/12/09 05:59:34;;;;;;;;;;;;;;;21.65;20.94;98016.06;5079544;28;825;-73
2023/12/09 06:01:59;;;;;;;;;;;;;;;21.62;20.99;98019.78;5094892;28;1302;-74
2023/12/09 06:04:25;;;;;;;;;;;;;;;21.66;20.80;98020.50;5078132;28;814;-73
2023/12/09 06:06:51;;;;;;;;;;;;;;;21.85;20.66;98025.22;5114038;28;1971;-74
2023/12/09 06:09:16;;;;;;;;;;;;;;;21.70;20.72;98024.00;5079929;28;1297;-73
2023/12/09 06:11:42;;;;;;;;;;;;;;;21.72;20.76;98015.88;5097141;28;1164;-74
2023/12/09 06:14:08;;;;;;;;;;;;;;;21.68;20.83;98009.50;5079923;28;1324;-73
2023/12/09 06:16:34;;;;;;;;;;;;;;;21.57;20.99;98009.81;5063233;28;829;-74
2023/12/09 06:18:59;;;;;;;;;;;;;;;21.62;21.15;98010.50;5073093;28;979;-73
2023/12/09 06:21:25;;;;;;;;;;;;;;;21.71;20.92;98010.63;5057061;28;964;-73
2023/12/09 06:23:51;;;;;;;;;;;;;;;21.59;20.93;98007.31;5075983;28;1167;-73
2023/12/09 06:26:16;;;;;;;;;;;;;;;21.81;20.83;98015.22;5059867;28;1886;-74
2023/12/09 06:28:42;;;;;;;;;;;;;;;21.63;20.75;98012.88;5042855;28;1510;-73
2023/12/09 06:31:10;;;;;;;;;;;;;;;21.78;20.73;98025.41;5059585;28;994;-73
2023/12/09 06:33:36;;;;;;;;;;;;;;;21.88;20.51;98017.09;5043140;28;811;-73
2023/12/09 06:36:01;;;;;;;;;;;;;;;21.67;20.91;98026.97;5059654;28;793;-73
2023/12/09 06:38:27;;;;;;;;;;;;;;;21.72;20.79;98038.53;5058234;28;898;-73
2023/12/09 06:40:53;;;;;;;;;;;;;;;21.76;20.48;98033.59;5059187;28;1080;-73
2023/12/09 06:43:18;;;;;;;;;;;;;;;21.71;20.62;98034.13;5042735;28;1320;-73
2023/12/09 06:45:44;;;;;;;;;;;;;;;21.91;20.65;98038.84;5056128;28;1902;-74
2023/12/09 06:48:09;;;;;;;;;;;;;;;21.40;20.87;98044.22;5056008;28;1026;-73
2023/12/09 06:50:35;;;;;;;;;;;;;;;21.70;20.83;98028.88;5037999;28;1143;-73
2023/12/09 06:53:01;;;;;;;;;;;;;;;21.53;20.84;98036.59;5059268;28;726;-73
2023/12/09 06:55:26;;;;;;;;;;;;;;;21.77;20.64;98028.72;5042411;28;1417;-73
2023/12/09 06:57:52;;;;;;;;;;;;;;;21.61;20.89;98037.25;5075811;28;797;-73
2023/12/09 07:00:17;;;;;;;;;;;;;;;21.70;20.98;98032.50;5058963;28;900;-73
2023/12/09 07:02:43;;;;;;;;;;;;;;;21.67;20.66;98039.06;5075275;28;919;-73
2023/12/09 07:05:11;;;;;;;;;;;;;;;21.71;20.75;98031.28;5058894;28;950;-74
2023/12/09 07:07:36;;;;;;;;;;;;;;;21.71;20.95;98042.63;5058900;28;1997;-73
2023/12/09 07:10:05;;;;;;;;;;;;;;;21.78;20.61;98048.09;5058735;28;1347;-73
2023/12/09 07:12:31;;;;;;;;;;;;;;;21.66;20.65;98039.50;5075405;28;790;-73
2023/12/09 07:14:58;;;;;;;;;;;;;;;21.72;20.77;98037.75;5058852;28;723;-73
2023/12/09 07:17:24;;;;;;;;;;;;;;;21.48;21.18;98046.44;5059084;28;1239;-73
2023/12/09 07:19:52;;;;;;;;;;;;;;;21.88;20.80;98045.41;5058431;28;747;-73
2023/12/09 07:22:21;;;;;;;;;;;;;;;21.64;20.80;98048.44;5061380;28;1114;-73
2023/12/09 07:24:47;;;;;;;;;;;;;;;21.60;20.96;98036.41;5045369;28;1104;-73
2023/12/09 07:27:12;;;;;;;;;;;;;;;21.62;20.95;98038.81;5078424;28;2031;-73
2023/12/09 07:29:38;;;;;;;;;;;;;;;21.68;20.89;98032.16;5095272;28;738;-73
2023/12/09 07:32:04;;;;;;;;;;;;;;;21.63;20.81;98035.53;5078590;28;818;-74
2023/12/09 07:34:30;;;;;;;;;;;;;;;21.71;20.56;98042.63;5059139;28;1014;-73
2023/12/09 07:36:56;;;;;;;;;;;;;;;21.76;20.78;98047.75;5109927;28;798;-73
2023/12/09 07:39:21;;;;;;;;;;;;;;;21.74;20.72;98047.38;5109505;28;829;-73
2023/12/09 07:41:50;;;;;;;;;;;;;;;21.60;21.08;98050.56;5093101;28;1400;-73
2023/12/09 07:44:20;;;;;;;;;;;;;;;21.91;20.68;98050.16;5091446;28;914;-73
2023/12/09 07:46:48;;;;;;;;;;;;;;;21.69;20.62;98033.75;5110181;28;1890;-73
2023/12/09 07:49:14;;;;;;;;;;;;;;;21.44;20.95;98040.06;5109253;28;722;-73
2023/12/09 07:51:40;;;;;;;;;;;;;;;21.59;20.93;98035.63;5109451;28;828;-74
2023/12/09 07:54:06;;;;;;;;;;;;;;;21.69;20.96;98033.75;5109701;28;734;-74
2023/12/09 07:56:31;;;;;;;;;;;;;;;21.42;20.90;98036.88;5109384;28;750;-73
2023/12/09 07:58:57;;;;;;;;;;;;;;;21.67;20.72;98050.41;5075804;28;963;-73
2023/12/09 08:01:23;;;;;;;;;;;;;;;21.52;20.80;98046.34;5075656;28;1262;-73
2023/12/09 08:03:49;;;;;;;;;;;;;;;21.47;20.90;98049.72;5075744;28;1240;-73
2023/12/09 08:06:14;;;;;;;;;;;;;;;21.88;20.40;98051.06;5076580;28;1898;-73
2023/12/09 08:08:40;;;;;;;;;;;;;;;21.54;20.89;98060.84;5097832;28;1241;-73
2023/12/09 08:11:05;;;;;;;;;;;;;;;21.44;21.19;98057.03;5097904;28;751;-73
2023/12/09 08:13:31;;;;;;;;;;;;;;;21.68;20.73;98043.50;5097738;28;920;-73
2023/12/09 08:15:57;;;;;;;;;;;;;;;21.51;20.88;98045.56;5098065;28;1158;-73
2023/12/09 08:18:22;;;;;;;;;;;;;;;21.51;21.03;98044.75;5097702;28;880;-74
2023/12/09 08:20:48;;;;;;;;;;;;;;;21.70;20.88;98046.66;5064544;28;1716;-73
2023/12/09 08:23:14;;;;;;;;;;;;;;;21.44;21.26;98047.75;5097704;28;1130;-73
2023/12/09 08:25:41;;;;;;;;;;;;;;;21.76;20.70;98042.06;5097984;28;806;-74
2023/12/09 08:28:07;;;;;;;;;;;;;;;21.51;20.89;98036.28;5081318;28;921;-74
2023/12/09 08:30:34;;;;;;;;;;;;;;;21.68;20.60;98034.22;5114346;28;1021;-73
2023/12/09 08:32:59;;;;;;;;;;;;;;;21.57;20.98;98040.16;5114514;28;872;-73
2023/12/09 08:35:25;;;;;;;;;;;;;;;21.70;20.62;98035.34;5073310;28;978;-73
2023/12/09 08:37:50;;;;;;;;;;;;;;;21.56;20.89;98030.88;5040201;28;1246;-73
2023/12/09 08:40:17;;;;;;;;;;;;;;;21.56;21.10;98042.19;5058958;28;864;-73
2023/12/09 08:42:43;;;;;;;;;;;;;;;21.59;20.85;98051.81;5054046;28;1129;-73
2023/12/09 08:45:12;;;;;;;;;;;;;;;21.64;21.07;98042.78;5053528;28;1254;-74
2023/12/09 08:47:38;;;;;;;;;;;;;;;21.62;20.78;98039.63;5053570;28;1898;-74
2023/12/09 08:50:07;;;;;;;;;;;;;;;21.58;21.20;98038.91;5036999;28;1203;-73
2023/12/09 08:52:33;;;;;;;;;;;;;;;21.59;20.83;98040.50;5036626;28;769;-73
2023/12/09 08:54:59;;;;;;;;;;;;;;;21.73;20.78;98034.47;5053212;28;979;-73
2023/12/09 08:57:25;;;;;;;;;;;;;;;21.66;20.76;98033.84;5053248;28;802;-73
2023/12/09 08:59:50;;;;;;;;;;;;;;;21.63;20.72;98027.03;5070348;28;813;-73
2023/12/09 09:02:16;;;;;;;;;;;;;;;21.71;20.44;98034.13;5035826;28;1332;-73
2023/12/09 09:04:41;;;;;;;;;;;;;;;21.67;20.96;98039.06;5053523;28;1173;-73
2023/12/09 09:07:07;;;;;;;;;;;;;;;21.54;21.02;98038.19;5053520;28;1979;-73
2023/12/09 09:09:33;;;;;;;;;;;;;;;21.51;20.83;98039.09;5053185;28;1493;-73
2023/12/09 09:11:59;;;;;;;;;;;;;;;21.84;20.43;98032.13;5055859;28;1504;-73
2023/12/09 09:14:24;;;;;;;;;;;;;;;21.74;20.74;98027.56;5073035;28;827;-74
2023/12/09 09:16:50;;;;;;;;;;;;;;;21.83;20.82;98016.38;5073426;28;782;-73
2023/12/09 09:19:16;;;;;;;;;;;;;;;21.90;20.59;98017.44;5056104;28;1095;-74
2023/12/09 09:21:41;;;;;;;;;;;;;;;21.90;20.68;98020.25;5056380;28;751;-73
2023/12/09 09:24:10;;;;;;;;;;;;;;;21.94;20.73;98024.59;5039693;28;1499;-73
2023/12/09 09:26:35;;;;;;;;;;;;;;;21.78;20.54;98024.63;5056323;28;1902;-73
2023/12/09 09:29:01;;;;;;;;;;;;;;;21.75;20.75;98019.84;5056535;28;1173;-73
2023/12/09 09:31:27;;;;;;;;;;;;;;;21.92;20.57;98017.78;5070848;28;1324;-73
2023/12/09 09:33:52;;;;;;;;;;;;;;;21.67;20.84;98024.91;5069903;28;820;-73
2023/12/09 09:36:18;;;;;;;;;;;;;;;21.74;21.02;98038.09;5052797;28;734;-74
2023/12/09 09:38:44;;;;;;;;;;;;;;;21.59;21.14;98026.34;5036406;28;1229;-73
2023/12/09 09:41:14;;;;;;;;;;;;;;;21.48;21.30;98039.97;5053063;28;795;-73
2023/12/09 09:43:41;;;;;;;;;;;;;;;21.71;20.79;98025.63;5053076;28;1126;-73
2023/12/09 09:46:07;;;;;;;;;;;;;;;21.56;21.23;98030.06;5052635;28;1894;-74
2023/12/09 09:48:34;;;;;;;;;;;;;;;21.88;20.65;98014.25;5052791;28;973;-73
2023/12/09 09:50:59;;;;;;;;;;;;;;;21.81;20.76;98018.88;5068575;28;1305;-74
2023/12/09 09:53:41;;;;;;;;;;;;;;;21.93;20.64;98016.53;5093011;28;727;-73
2023/12/09 09:56:07;;;;;;;;;;;;;;;21.68;20.71;98015.19;5076169;28;1341;-74
2023/12/09 09:58:32;;;;;;;;;;;;;;;21.44;21.10;98010.97;5093303;28;1001;-72
2023/12/09 10:00:59;;;;;;;;;;;;;;;21.64;20.98;98011.63;5042754;28;1356;-73
2023/12/09 10:03:24;;;;;;;;;;;;;;;21.93;20.56;98019.38;5059559;28;1252;-74
2023/12/09 10:05:51;;;;;;;;;;;;;;;21.85;20.96;98019.56;5032771;28;1973;-73
2023/12/09 10:08:16;;;;;;;;;;;;;;;21.76;21.01;98022.25;4999725;28;974;-74
2023/12/09 10:10:42;;;;;;;;;;;;;;;21.70;20.82;98035.34;5016334;28;812;-73
2023/12/09 10:13:08;;;;;;;;;;;;;;;21.64;21.00;98025.00;4998330;28;1125;-73
2023/12/09 10:15:34;;;;;;;;;;;;;;;21.28;21.24;98026.69;5000197;28;947;-73
2023/12/09 10:18:03;;;;;;;;;;;;;;;21.81;20.80;98021.72;5000249;28;1020;-73
2023/12/09 10:20:29;;;;;;;;;;;;;;;21.82;20.79;98023.28;4983053;28;1406;-74
2023/12/09 10:22:55;;;;;;;;;;;;;;;21.81;20.79;98016.03;5000114;28;1145;-74
2023/12/09 10:25:22;;;;;;;;;;;;;;;21.92;20.97;98018.59;4983675;28;902;-74
2023/12/09 10:27:47;;;;;;;;;;;;;;;21.68;20.89;98020.03;5000004;28;1906;-73
2023/12/09 10:30:13;;;;;;;;;;;;;;;21.85;20.67;98019.56;4996857;28;999;-73
2023/12/09 10:32:39;;;;;;;;;;;;;;;21.74;20.79;98013.38;4980405;28;882;-73
2023/12/09 10:35:04;;;;;;;;;;;;;;;21.74;20.74;98007.72;4964400;28;1116;-74
2023/12/09 10:37:31;;;;;;;;;;;;;;;21.64;21.24;97997.47;4995375;28;863;-73
2023/12/09 10:39:56;;;;;;;;;;;;;;;21.72;21.03;97989.59;4983546;28;815;-73
2023/12/09 10:42:23;;;;;;;;;;;;;;;21.66;21.26;97995.00;4999952;28;850;-73
2023/12/09 10:44:49;;;;;;;;;;;;;;;21.66;21.00;98005.53;4983526;28;1002;-74
2023/12/09 10:47:14;;;;;;;;;;;;;;;21.93;20.87;98008.03;5015673;28;1926;-73
2023/12/09 10:49:40;;;;;;;;;;;;;;;21.66;20.77;98006.34;5002272;28;1109;-73
2023/12/09 10:52:06;;;;;;;;;;;;;;;21.47;21.32;98007.25;5002718;28;1078;-74
2023/12/09 10:54:31;;;;;;;;;;;;;;;21.36;21.60;98003.91;5002951;28;1301;-73
2023/12/09 10:56:58;;;;;;;;;;;;;;;21.57;21.06;97998.47;5019148;28;1323;-73
2023/12/09 10:59:23;;;;;;;;;;;;;;;21.52;21.34;98001.84;5002689;28;855;-73
2023/12/09 11:01:49;;;;;;;;;;;;;;;21.57;20.98;98001.31;5045689;28;993;-73
2023/12/09 11:04:15;;;;;;;;;;;;;;;21.46;21.44;97997.16;5038946;28;915;-73
2023/12/09 11:06:41;;;;;;;;;;;;;;;21.61;21.22;98001.22;5038949;28;1996;-73
2023/12/09 11:09:07;;;;;;;;;;;;;;;21.73;20.90;98000.47;5038424;28;696;-73
2023/12/09 11:11:34;;;;;;;;;;;;;;;21.59;21.39;97989.53;5039301;28;903;-73
2023/12/09 11:14:00;;;;;;;;;;;;;;;21.44;21.22;97991.94;5021808;28;817;-73
2023/12/09 11:16:28;;;;;;;;;;;;;;;21.44;21.51;97993.97;5022177;28;1098;-73
2023/12/09 11:18:55;;;;;;;;;;;;;;;21.66;20.92;97988.53;5038741;28;1240;-73
2023/12/09 11:21:21;;;;;;;;;;;;;;;21.74;20.94;97987.91;5021962;28;772;-73
2023/12/09 11:23:48;;;;;;;;;;;;;;;21.76;21.03;97993.09;5004985;28;1465;-73
2023/12/09 11:26:15;;;;;;;;;;;;;;;21.72;20.90;97993.22;5038203;28;1906;-73
2023/12/09 11:29:01;;;;;;;;;;;;;;;21.77;20.75;97989.06;5015294;28;840;-73
2023/12/09 11:31:39;;;;;;;;;;;;;;;21.51;21.16;97982.47;5014698;28;1143;-73
2023/12/09 11:34:05;;;;;;;;;;;;;;;21.63;21.03;97984.56;4998631;28;803;-74
2023/12/09 11:36:35;;;;;;;;;;;;;;;21.65;21.13;97987.75;4982521;28;1420;-73
2023/12/09 11:39:01;;;;;;;;;;;;;;;21.63;21.29;97983.78;5007273;28;1234;-73
2023/12/09 11:41:27;;;;;;;;;;;;;;;21.45;21.43;97975.75;5018623;28;895;-73
2023/12/09 11:43:53;;;;;;;;;;;;;;;21.59;21.05;97966.88;4998505;28;963;-73
2023/12/09 11:46:19;;;;;;;;;;;;;;;21.59;21.14;97972.53;4998351;28;1922;-74
2023/12/09 11:48:44;;;;;;;;;;;;;;;21.61;21.18;97975.75;4998274;28;903;-73
2023/12/09 11:51:10;;;;;;;;;;;;;;;21.38;21.53;97978.78;4998316;28;890;-73
2023/12/09 11:53:36;;;;;;;;;;;;;;;21.54;21.43;97981.56;4981928;28;1433;-73
2023/12/09 11:56:01;;;;;;;;;;;;;;;21.72;21.06;97987.56;5014982;28;728;-73
2023/12/09 11:58:27;;;;;;;;;;;;;;;21.48;21.09;97984.16;5014785;28;870;-73
2023/12/09 12:00:52;;;;;;;;;;;;;;;21.55;21.10;97992.47;5054237;28;739;-73
2023/12/09 12:03:19;;;;;;;;;;;;;;;21.66;20.98;97989.34;5021122;28;945;-73
2023/12/09 12:05:44;;;;;;;;;;;;;;;21.58;20.99;97985.91;5037339;28;818;-73
2023/12/09 12:08:15;;;;;;;;;;;;;;;21.46;21.28;97992.31;5037765;28;1906;-73
2023/12/09 12:10:41;;;;;;;;;;;;;;;21.70;21.09;97990.03;5021771;28;1264;-73
2023/12/09 12:13:06;;;;;;;;;;;;;;;21.72;20.89;97987.56;4962222;28;1136;-73
2023/12/09 12:15:32;;;;;;;;;;;;;;;21.66;21.10;97978.03;5009985;28;869;-74
2023/12/09 12:18:00;;;;;;;;;;;;;;;21.32;21.26;97970.81;5014180;28;896;-73
2023/12/09 12:20:25;;;;;;;;;;;;;;;21.79;21.00;97980.91;5014262;28;1173;-74
2023/12/09 12:22:51;;;;;;;;;;;;;;;21.66;21.16;97983.69;4997600;28;1273;-73
2023/12/09 12:25:16;;;;;;;;;;;;;;;21.82;20.93;97985.69;5014528;28;859;-73
2023/12/09 12:27:44;;;;;;;;;;;;;;;21.72;21.12;97984.72;4997722;28;1969;-73
2023/12/09 12:30:10;;;;;;;;;;;;;;;21.59;20.95;97989.53;5013871;28;925;-73
2023/12/09 12:32:36;;;;;;;;;;;;;;;21.81;20.75;97996.22;4998147;28;1472;-74
2023/12/09 12:35:07;;;;;;;;;;;;;;;21.72;20.76;97992.44;5014093;28;1060;-73
2023/12/09 12:37:33;;;;;;;;;;;;;;;21.70;21.10;97990.03;5013918;28;943;-73
2023/12/09 12:39:58;;;;;;;;;;;;;;;21.58;21.32;97987.94;5014342;28;811;-73
2023/12/09 12:42:24;;;;;;;;;;;;;;;21.37;21.37;97982.84;5001449;28;1114;-74
2023/12/09 12:44:49;;;;;;;;;;;;;;;21.52;21.22;97987.69;4997550;28;823;-73
2023/12/09 12:47:15;;;;;;;;;;;;;;;21.35;21.27;97985.31;4997714;28;1910;-73
2023/12/09 12:49:41;;;;;;;;;;;;;;;21.54;21.11;97987.22;5003542;28;732;-73
2023/12/09 12:52:06;;;;;;;;;;;;;;;21.73;21.15;97989.16;5055073;28;885;-73
2023/12/09 12:54:32;;;;;;;;;;;;;;;21.51;20.92;97990.97;5071256;28;1230;-73
2023/12/09 12:56:58;;;;;;;;;;;;;;;21.81;20.73;97990.56;5055768;28;842;-73